createdAt,value
2018-11-06T00:00:57.618Z,9.40
2018-11-06T00:03:31.989Z,9.50
2018-11-06T00:06:01.257Z,9.50
2018-11-06T00:08:30.341Z,9.50
2018-11-06T00:10:59.402Z,9.50
2018-11-06T00:13:28.629Z,9.40
2018-11-06T00:15:57.693Z,9.40
2018-11-06T00:18:26.801Z,9.50
2018-11-06T00:20:56.061Z,9.40
2018-11-06T00:23:25.129Z,9.50
2018-11-06T00:25:55.325Z,9.50
2018-11-06T00:28:24.666Z,9.40
2018-11-06T00:30:53.919Z,9.40
2018-11-06T00:33:23.532Z,9.50
2018-11-06T00:35:53.415Z,9.40
2018-11-06T00:38:22.807Z,9.40
2018-11-06T00:40:51.809Z,9.40
2018-11-06T00:43:21.518Z,9.50
2018-11-06T00:45:50.473Z,9.50
2018-11-06T00:48:19.967Z,9.50
2018-11-06T00:50:49.033Z,9.50
2018-11-06T00:53:18.092Z,9.50
2018-11-06T00:55:47.141Z,9.50
2018-11-06T00:58:16.218Z,9.50
2018-11-06T01:00:45.669Z,9.50
2018-11-06T01:03:15.417Z,9.50
2018-11-06T01:05:44.672Z,9.60
2018-11-06T01:08:13.711Z,9.60
2018-11-06T01:10:42.816Z,9.60
2018-11-06T01:13:11.742Z,9.60
2018-11-06T01:15:40.621Z,9.50
2018-11-06T01:18:09.538Z,9.50
2018-11-06T01:20:39.285Z,9.60
2018-11-06T01:23:08.210Z,9.50
2018-11-06T01:25:37.286Z,9.50
2018-11-06T01:28:06.739Z,9.50
2018-11-06T01:30:36.085Z,9.50
2018-11-06T01:33:05.496Z,9.50
2018-11-06T01:35:34.917Z,9.50
2018-11-06T01:38:04.197Z,9.50
2018-11-06T01:40:33.413Z,9.50
2018-11-06T01:43:02.966Z,9.40
2018-11-06T01:45:31.849Z,9.40
2018-11-06T01:48:00.960Z,9.50
2018-11-06T01:50:30.312Z,9.50
2018-11-06T01:52:59.441Z,9.50
2018-11-06T01:55:28.681Z,9.40
2018-11-06T01:57:57.906Z,9.40
2018-11-06T02:00:27.061Z,9.40
2018-11-06T02:02:56.198Z,9.40
2018-11-06T02:05:25.173Z,9.40
2018-11-06T02:07:54.365Z,9.40
2018-11-06T02:10:23.561Z,9.40
2018-11-06T02:12:52.477Z,9.40
2018-11-06T02:15:21.657Z,9.40
2018-11-06T02:17:50.834Z,9.40
2018-11-06T02:20:20.053Z,9.40
2018-11-06T02:22:49.456Z,9.40
2018-11-06T02:25:18.749Z,9.40
2018-11-06T02:27:48.061Z,9.40
2018-11-06T02:30:17.980Z,9.40
2018-11-06T02:32:47.526Z,9.40
2018-11-06T02:35:16.878Z,9.40
2018-11-06T02:37:46.043Z,9.40
2018-11-06T02:40:16.342Z,9.40
2018-11-06T02:42:45.821Z,9.40
2018-11-06T02:45:15.242Z,9.40
2018-11-06T02:47:44.656Z,9.30
2018-11-06T02:50:14.600Z,9.40
2018-11-06T02:52:44.176Z,9.30
2018-11-06T02:55:13.778Z,9.30
2018-11-06T02:57:43.461Z,9.30
2018-11-06T03:00:14.801Z,9.30
2018-11-06T03:02:44.752Z,9.30
2018-11-06T03:05:13.685Z,9.30
2018-11-06T03:07:42.802Z,9.30
2018-11-06T03:10:12.902Z,9.30
2018-11-06T03:12:42.869Z,9.20
2018-11-06T03:15:13.397Z,9.20
2018-11-06T03:17:42.641Z,9.20
2018-11-06T03:20:12.510Z,9.20
2018-11-06T03:22:42.205Z,9.10
2018-11-06T03:25:11.634Z,9.10
2018-11-06T03:27:40.951Z,9.10
2018-11-06T03:30:12.118Z,9.10
2018-11-06T03:32:41.609Z,9.10
2018-11-06T03:35:12.086Z,9.00
2018-11-06T03:37:41.955Z,9.00
2018-11-06T03:40:11.704Z,9.00
2018-11-06T03:42:41.729Z,9.00
2018-11-06T03:45:11.862Z,9.00
2018-11-06T03:47:40.765Z,8.90
2018-11-06T03:50:11.446Z,8.90
2018-11-06T03:52:40.610Z,8.90
2018-11-06T03:55:10.089Z,8.90
2018-11-06T03:57:39.322Z,8.80
2018-11-06T04:00:10.930Z,8.80
2018-11-06T04:02:40.367Z,8.80
2018-11-06T04:05:09.762Z,8.80
2018-11-06T04:07:38.989Z,8.90
2018-11-06T04:10:09.450Z,8.80
2018-11-06T04:12:38.994Z,8.80
2018-11-06T04:15:08.572Z,8.70
2018-11-06T04:17:37.475Z,8.80
2018-11-06T04:20:06.989Z,8.70
2018-11-06T04:22:35.945Z,8.70
2018-11-06T04:25:05.269Z,8.70
2018-11-06T04:27:34.177Z,8.70
2018-11-06T04:30:03.136Z,8.70
2018-11-06T04:32:32.222Z,8.70
2018-11-06T04:35:01.106Z,8.70
2018-11-06T04:37:30.010Z,8.60
2018-11-06T04:39:58.937Z,8.70
2018-11-06T04:42:27.810Z,8.60
2018-11-06T04:44:56.811Z,8.60
2018-11-06T04:47:25.990Z,8.50
2018-11-06T04:49:54.858Z,8.60
2018-11-06T04:52:23.804Z,8.60
2018-11-06T04:54:52.694Z,8.50
2018-11-06T04:57:21.581Z,8.50
2018-11-06T04:59:50.479Z,8.50
2018-11-06T05:02:19.358Z,8.50
2018-11-06T05:04:48.246Z,8.50
2018-11-06T05:07:17.444Z,8.40
2018-11-06T05:09:46.849Z,8.40
2018-11-06T05:12:16.141Z,8.50
2018-11-06T05:14:45.446Z,8.40
2018-11-06T05:17:14.706Z,8.40
2018-11-06T05:19:44.009Z,8.40
2018-11-06T05:22:13.253Z,8.30
2018-11-06T05:24:42.145Z,8.30
2018-11-06T05:27:11.074Z,8.30
2018-11-06T05:29:40.034Z,8.20
2018-11-06T05:32:08.910Z,8.20
2018-11-06T05:39:36.332Z,8.30
2018-11-06T05:42:05.358Z,8.20
2018-11-06T05:44:34.674Z,8.20
2018-11-06T05:47:03.598Z,8.20
2018-11-06T05:49:32.478Z,8.20
2018-11-06T05:52:01.837Z,8.20
2018-11-06T05:54:30.765Z,8.20
2018-11-06T05:56:59.951Z,8.20
2018-11-06T05:59:29.237Z,8.20
2018-11-06T06:01:58.129Z,8.20
2018-11-06T06:04:27.429Z,8.20
2018-11-06T06:06:56.685Z,8.20
2018-11-06T06:09:25.629Z,8.20
2018-11-06T06:11:54.551Z,8.20
2018-11-06T06:14:23.559Z,8.20
2018-11-06T06:16:52.815Z,8.30
2018-11-06T06:19:21.689Z,8.20
2018-11-06T06:21:50.589Z,8.20
2018-11-06T06:24:19.517Z,8.20
2018-11-06T06:26:48.845Z,8.20
2018-11-06T06:29:18.175Z,8.30
2018-11-06T06:31:47.064Z,8.30
2018-11-06T06:34:15.946Z,8.30
2018-11-06T06:36:44.878Z,8.30
2018-11-06T06:39:13.858Z,8.30
2018-11-06T06:41:42.889Z,8.30
2018-11-06T06:44:11.789Z,8.30
2018-11-06T06:46:40.670Z,8.30
2018-11-06T06:49:09.799Z,8.30
2018-11-06T06:51:38.719Z,8.30
2018-11-06T06:54:07.720Z,8.40
2018-11-06T06:56:36.653Z,8.40
2018-11-06T06:59:06.074Z,8.30
2018-11-06T07:01:35.069Z,8.30
2018-11-06T07:04:04.469Z,8.40
2018-11-06T07:06:33.865Z,8.40
2018-11-06T07:09:03.138Z,8.40
2018-11-06T07:11:32.342Z,8.40
2018-11-06T07:14:01.262Z,8.40
2018-11-06T07:16:30.446Z,8.40
2018-11-06T07:18:59.755Z,8.40
2018-11-06T07:21:28.695Z,8.40
2018-11-06T07:23:58.043Z,8.40
2018-11-06T07:26:27.299Z,8.40
2018-11-06T07:28:56.583Z,8.50
2018-11-06T07:31:26.193Z,8.50
2018-11-06T07:33:55.447Z,8.50
2018-11-06T07:36:24.752Z,8.50
2018-11-06T07:38:53.645Z,8.50
2018-11-06T07:41:22.974Z,8.50
2018-11-06T07:43:51.885Z,8.50
2018-11-06T07:46:21.201Z,8.50
2018-11-06T07:48:50.517Z,8.50
2018-11-06T07:51:19.837Z,8.50
2018-11-06T07:53:49.021Z,8.60
2018-11-06T07:56:18.158Z,8.60
2018-11-06T07:58:47.057Z,8.60
2018-11-06T08:01:16.302Z,8.60
2018-11-06T08:03:45.209Z,8.60
2018-11-06T08:06:14.254Z,8.60
2018-11-06T08:08:43.442Z,8.60
2018-11-06T08:11:12.448Z,8.60
2018-11-06T08:13:41.428Z,8.60
2018-11-06T08:16:10.765Z,8.60
2018-11-06T08:18:39.662Z,8.60
2018-11-06T08:21:08.597Z,8.70
2018-11-06T08:23:37.593Z,8.60
2018-11-06T08:26:06.970Z,8.70
2018-11-06T08:28:35.990Z,8.60
2018-11-06T08:31:05.504Z,8.70
2018-11-06T08:33:34.417Z,8.70
2018-11-06T08:36:03.343Z,8.70
2018-11-06T08:38:32.617Z,8.70
2018-11-06T08:41:01.581Z,8.80
2018-11-06T08:43:30.826Z,8.70
2018-11-06T08:45:59.970Z,8.80
2018-11-06T08:48:28.954Z,8.80
2018-11-06T08:50:57.877Z,8.80
2018-11-06T08:53:26.778Z,8.80
2018-11-06T08:55:55.973Z,8.80
2018-11-06T08:58:25.273Z,8.80
2018-11-06T09:00:54.181Z,8.80
2018-11-06T09:03:23.066Z,8.90
2018-11-06T09:05:52.038Z,8.90
2018-11-06T09:08:20.966Z,8.80
2018-11-06T09:10:50.437Z,8.90
2018-11-06T09:13:19.747Z,8.90
2018-11-06T09:15:48.658Z,8.90
2018-11-06T09:18:17.614Z,8.90
2018-11-06T09:20:46.529Z,8.90
2018-11-06T09:23:15.413Z,8.90
2018-11-06T09:25:44.306Z,8.90
2018-11-06T09:28:13.277Z,8.90
2018-11-06T09:30:42.220Z,8.90
2018-11-06T09:33:11.103Z,9.00
2018-11-06T09:35:40.110Z,8.90
2018-11-06T09:38:09.046Z,8.90
2018-11-06T09:40:37.957Z,9.00
2018-11-06T09:43:06.962Z,9.00
2018-11-06T09:45:35.985Z,9.00
2018-11-06T09:48:04.873Z,9.00
2018-11-06T09:50:33.785Z,9.00
2018-11-06T09:53:02.730Z,9.00
2018-11-06T09:55:31.643Z,9.00
2018-11-06T09:58:00.995Z,9.00
2018-11-06T10:00:30.278Z,9.00
2018-11-06T10:02:59.685Z,9.00
2018-11-06T10:05:28.631Z,9.00
2018-11-06T10:07:58.060Z,9.00
2018-11-06T10:10:27.273Z,9.00
2018-11-06T10:12:56.182Z,9.00
2018-11-06T10:15:25.080Z,9.00
2018-11-06T10:17:53.995Z,9.00
2018-11-06T10:20:22.907Z,9.00
2018-11-06T10:22:51.821Z,9.00
2018-11-06T10:25:20.713Z,9.10
2018-11-06T10:27:49.678Z,9.00
2018-11-06T10:30:19.799Z,9.10
2018-11-06T10:32:48.703Z,9.10
2018-11-06T10:35:17.638Z,9.10
2018-11-06T10:37:46.549Z,9.10
2018-11-06T10:40:16.957Z,9.10
2018-11-06T10:42:46.383Z,9.10
2018-11-06T10:45:15.353Z,9.10
2018-11-06T10:47:44.629Z,9.10
2018-11-06T10:50:14.270Z,9.10
2018-11-06T10:52:43.657Z,9.00
2018-11-06T10:55:12.934Z,9.10
2018-11-06T10:57:42.582Z,9.10
2018-11-06T11:00:18.556Z,9.00
2018-11-06T11:02:52.857Z,9.10
2018-11-06T11:05:23.684Z,9.00
2018-11-06T11:07:52.585Z,9.00
2018-11-06T11:10:21.633Z,9.00
2018-11-06T11:12:50.563Z,9.10
2018-11-06T11:15:19.473Z,9.00
2018-11-06T11:17:48.401Z,9.00
2018-11-06T11:20:17.491Z,9.00
2018-11-06T11:22:46.678Z,9.10
2018-11-06T11:25:16.660Z,9.10
2018-11-06T11:27:46.814Z,9.20
2018-11-06T11:30:16.677Z,9.20
2018-11-06T11:32:47.160Z,9.20
2018-11-06T11:35:16.426Z,9.20
2018-11-06T11:37:45.451Z,9.30
2018-11-06T11:40:15.526Z,9.30
2018-11-06T11:42:44.471Z,9.30
2018-11-06T11:45:14.317Z,9.30
2018-11-06T11:47:43.243Z,9.30
2018-11-06T11:50:13.714Z,9.30
2018-11-06T11:52:42.744Z,9.40
2018-11-06T11:55:11.791Z,9.40
2018-11-06T11:57:41.229Z,9.40
2018-11-06T12:00:12.636Z,9.40
2018-11-06T12:02:41.602Z,9.40
2018-11-06T12:05:11.273Z,9.40
2018-11-06T12:07:40.286Z,9.40
2018-11-06T12:10:10.580Z,9.40
2018-11-06T12:12:39.589Z,9.40
2018-11-06T12:15:11.067Z,9.40
2018-11-06T12:17:40.523Z,9.40
2018-11-06T12:20:09.438Z,9.50
2018-11-06T12:22:39.028Z,9.50
2018-11-06T12:25:08.696Z,9.50
2018-11-06T12:27:37.927Z,9.50
2018-11-06T12:30:09.890Z,9.50
2018-11-06T12:32:39.263Z,9.50
2018-11-06T12:35:09.025Z,9.50
2018-11-06T12:37:38.202Z,9.50
2018-11-06T12:40:08.302Z,9.40
2018-11-06T12:42:37.865Z,9.40
2018-11-06T12:45:08.561Z,9.40
2018-11-06T12:47:37.496Z,9.50
2018-11-06T12:50:07.867Z,9.40
2018-11-06T12:52:36.895Z,9.50
2018-11-06T12:55:07.477Z,9.50
2018-11-06T12:57:36.945Z,9.50
2018-11-06T13:00:06.997Z,9.40
2018-11-06T13:02:35.909Z,9.50
2018-11-06T13:05:05.231Z,9.40
2018-11-06T13:07:34.161Z,9.40
2018-11-06T13:10:03.145Z,9.40
2018-11-06T13:12:32.404Z,9.40
2018-11-06T13:15:01.737Z,9.40
2018-11-06T13:17:30.949Z,9.40
2018-11-06T13:20:00.208Z,9.40
2018-11-06T13:22:29.322Z,9.50
2018-11-06T13:24:58.390Z,9.50
2018-11-06T13:27:27.611Z,9.40
2018-11-06T13:29:56.704Z,9.40
2018-11-06T13:32:25.942Z,9.40
2018-11-06T13:34:55.178Z,9.50
2018-11-06T13:37:24.298Z,9.40
2018-11-06T13:39:53.500Z,9.40
2018-11-06T13:42:22.430Z,9.30
2018-11-06T13:44:52.038Z,9.30
2018-11-06T13:47:20.873Z,9.30
2018-11-06T13:49:49.945Z,9.30
2018-11-06T13:52:19.234Z,9.30
2018-11-06T13:54:48.425Z,9.30
2018-11-06T13:57:17.686Z,9.30
2018-11-06T13:59:46.826Z,9.20
2018-11-06T14:02:16.223Z,9.20
2018-11-06T14:04:45.566Z,9.20
2018-11-06T14:07:14.866Z,9.20
2018-11-06T14:09:43.754Z,9.20
2018-11-06T14:12:13.254Z,9.20
2018-11-06T14:14:42.478Z,9.20
2018-11-06T14:17:11.732Z,9.20
2018-11-06T14:19:41.051Z,9.20
2018-11-06T14:22:10.158Z,9.20
2018-11-06T14:24:39.073Z,9.20
2018-11-06T14:27:08.065Z,9.20
2018-11-06T14:29:37.242Z,9.20
2018-11-06T14:32:06.582Z,9.20
2018-11-06T14:34:35.495Z,9.20
2018-11-06T14:37:04.827Z,9.20
2018-11-06T14:39:34.091Z,9.20
2018-11-06T14:42:03.335Z,9.30
2018-11-06T14:44:32.614Z,9.30
2018-11-06T14:47:01.886Z,9.30
2018-11-06T14:49:31.218Z,9.30
2018-11-06T14:52:00.313Z,9.30
2018-11-06T14:54:29.483Z,9.30
2018-11-06T14:56:58.698Z,9.30
2018-11-06T14:59:27.789Z,9.30
2018-11-06T15:01:56.986Z,9.30
2018-11-06T15:04:26.052Z,9.30
2018-11-06T15:06:55.179Z,9.40
2018-11-06T15:09:24.269Z,9.40
2018-11-06T15:11:53.441Z,9.40
2018-11-06T15:14:22.646Z,9.40
2018-11-06T15:16:52.142Z,9.40
2018-11-06T15:19:21.250Z,9.40
2018-11-06T15:21:50.743Z,9.50
2018-11-06T15:24:19.846Z,9.40
2018-11-06T15:26:50.033Z,9.50
2018-11-06T15:29:19.390Z,9.50
2018-11-06T15:31:48.550Z,9.50
2018-11-06T15:34:17.451Z,9.40
2018-11-06T15:36:46.783Z,9.40
2018-11-06T15:39:16.103Z,9.40
2018-11-06T15:41:45.552Z,9.40
2018-11-06T15:44:14.680Z,9.30
2018-11-06T15:46:43.777Z,9.30
2018-11-06T15:49:13.392Z,9.30
2018-11-06T15:51:42.966Z,9.20
2018-11-06T15:54:12.084Z,9.20
2018-11-06T15:56:41.347Z,9.20
2018-11-06T15:59:10.678Z,9.10
2018-11-06T16:01:39.897Z,9.00
2018-11-06T16:04:09.249Z,9.10
2018-11-06T16:06:38.434Z,9.00
2018-11-06T16:09:08.785Z,9.00
2018-11-06T16:11:37.970Z,9.00
2018-11-06T16:14:07.338Z,9.00
2018-11-06T16:16:36.582Z,9.00
2018-11-06T16:19:05.854Z,8.90
2018-11-06T16:21:35.095Z,8.90
2018-11-06T16:24:04.468Z,8.90
2018-11-06T16:26:34.173Z,8.90
2018-11-06T16:29:03.802Z,8.90
2018-11-06T16:31:32.979Z,8.80
2018-11-06T16:34:02.059Z,8.90
2018-11-06T16:36:31.202Z,8.80
2018-11-06T16:39:00.354Z,8.80
2018-11-06T16:41:29.505Z,8.80
2018-11-06T16:43:58.770Z,8.70
2018-11-06T16:46:27.862Z,8.70
2018-11-06T16:48:57.021Z,8.70
2018-11-06T16:51:26.191Z,8.60
2018-11-06T16:53:55.418Z,8.60
2018-11-06T16:56:24.533Z,8.60
2018-11-06T16:58:53.561Z,8.60
2018-11-06T17:01:23.261Z,8.60
2018-11-06T17:03:52.654Z,8.60
2018-11-06T17:06:26.860Z,8.60
2018-11-06T17:08:55.762Z,8.50
2018-11-06T17:11:24.673Z,8.50
2018-11-06T17:13:53.721Z,8.50
2018-11-06T17:16:22.702Z,8.50
2018-11-06T17:18:52.011Z,8.50
2018-11-06T17:21:21.258Z,8.50
2018-11-06T17:23:50.510Z,8.50
2018-11-06T17:26:19.697Z,8.50
2018-11-06T17:28:49.037Z,8.40
2018-11-06T17:31:19.141Z,8.40
2018-11-06T17:33:48.544Z,8.40
2018-11-06T17:36:17.747Z,8.40
2018-11-06T17:38:46.910Z,8.40
2018-11-06T17:41:16.230Z,8.40
2018-11-06T17:43:45.464Z,8.40
2018-11-06T17:46:15.076Z,8.40
2018-11-06T17:48:43.973Z,8.40
2018-11-06T17:51:12.893Z,8.40
2018-11-06T17:53:42.302Z,8.40
2018-11-06T17:56:11.425Z,8.40
2018-11-06T17:58:40.913Z,8.50
2018-11-06T18:01:10.322Z,8.40
2018-11-06T18:03:39.514Z,8.50
2018-11-06T18:06:08.829Z,8.40
2018-11-06T18:08:38.013Z,8.40
2018-11-06T18:11:07.441Z,8.40
2018-11-06T18:13:36.625Z,8.50
2018-11-06T18:16:06.303Z,8.50
2018-11-06T18:18:35.190Z,8.50
2018-11-06T18:21:04.413Z,8.50
2018-11-06T18:23:33.665Z,8.50
2018-11-06T18:26:03.124Z,8.60
2018-11-06T18:28:32.438Z,8.50
2018-11-06T18:31:01.913Z,8.50
2018-11-06T18:33:31.082Z,8.50
2018-11-06T18:36:00.206Z,8.50
2018-11-06T18:38:29.433Z,8.50
2018-11-06T18:40:58.606Z,8.50
2018-11-06T18:43:27.698Z,7.40
2018-11-06T18:45:56.858Z,8.50
2018-11-06T18:48:26.024Z,8.50
2018-11-06T18:50:55.305Z,8.50
2018-11-06T18:53:24.603Z,8.40
2018-11-06T18:55:54.135Z,8.40
2018-11-06T18:58:23.928Z,8.50
2018-11-06T19:00:53.066Z,8.40
2018-11-06T19:03:22.659Z,8.40
2018-11-06T19:05:52.105Z,8.40
2018-11-06T19:08:21.597Z,8.50
2018-11-06T19:10:50.854Z,8.50
2018-11-06T19:13:20.002Z,8.50
2018-11-06T19:15:49.074Z,8.50
2018-11-06T19:18:18.287Z,8.50
2018-11-06T19:20:47.493Z,8.50
2018-11-06T19:23:16.785Z,8.50
2018-11-06T19:25:46.189Z,8.50
2018-11-06T19:28:15.406Z,8.40
2018-11-06T19:30:45.014Z,8.50
2018-11-06T19:33:14.254Z,8.50
2018-11-06T19:35:43.632Z,8.40
2018-11-06T19:38:12.765Z,8.40
2018-11-06T19:40:42.059Z,8.40
2018-11-06T19:43:11.182Z,8.40
2018-11-06T19:45:40.794Z,8.40
2018-11-06T19:48:10.547Z,8.40
2018-11-06T19:50:40.223Z,8.30
2018-11-06T19:53:09.509Z,8.30
2018-11-06T19:55:38.803Z,8.20
2018-11-06T19:58:08.287Z,8.20
2018-11-06T20:00:37.926Z,8.20
2018-11-06T20:03:07.538Z,8.20
2018-11-06T20:05:36.902Z,8.20
2018-11-06T20:08:06.398Z,8.20
2018-11-06T20:10:35.436Z,8.10
2018-11-06T20:13:04.887Z,8.10
2018-11-06T20:15:34.275Z,8.10
2018-11-06T20:18:03.852Z,8.20
2018-11-06T20:20:33.187Z,8.20
2018-11-06T20:23:02.130Z,8.20
2018-11-06T20:25:31.427Z,8.20
2018-11-06T20:28:00.543Z,8.20
2018-11-06T20:30:29.718Z,8.20
2018-11-06T20:32:59.110Z,8.20
2018-11-06T20:35:28.660Z,8.10
2018-11-06T20:37:57.690Z,8.10
2018-11-06T20:40:27.490Z,8.10
2018-11-06T20:42:56.944Z,8.10
2018-11-06T20:45:26.636Z,8.10
2018-11-06T20:47:55.807Z,8.00
2018-11-06T20:50:25.398Z,8.00
2018-11-06T20:52:54.939Z,8.00
2018-11-06T20:55:24.255Z,8.00
2018-11-06T20:57:53.583Z,8.00
2018-11-06T21:00:24.717Z,8.00
2018-11-06T21:02:55.307Z,8.00
2018-11-06T21:05:24.904Z,7.90
2018-11-06T21:07:53.981Z,7.90
2018-11-06T21:10:24.618Z,7.90
2018-11-06T21:12:54.345Z,7.90
2018-11-06T21:15:23.663Z,7.90
2018-11-06T21:17:53.013Z,7.90
2018-11-06T21:20:22.447Z,7.90
2018-11-06T21:22:51.550Z,7.90
2018-11-06T21:25:20.791Z,7.80
2018-11-06T21:27:50.043Z,7.80
2018-11-06T21:30:20.418Z,7.80
2018-11-06T21:32:50.649Z,7.80
2018-11-06T21:35:20.097Z,7.70
2018-11-06T21:37:48.994Z,7.70
2018-11-06T21:40:19.497Z,7.70
2018-11-06T21:42:49.097Z,7.70
2018-11-06T21:45:18.698Z,7.70
2018-11-06T21:47:48.904Z,7.70
2018-11-06T21:50:18.478Z,7.80
2018-11-06T21:52:47.845Z,7.80
2018-11-06T21:55:18.232Z,7.80
2018-11-06T21:57:47.461Z,7.80
2018-11-06T22:00:19.945Z,7.80
2018-11-06T22:02:48.999Z,7.90
2018-11-06T22:05:19.410Z,7.90
2018-11-06T22:07:48.927Z,7.90
2018-11-06T22:10:19.498Z,8.00
2018-11-06T22:12:48.708Z,8.00
2018-11-06T22:15:18.767Z,8.10
2018-11-06T22:17:48.094Z,8.10
2018-11-06T22:20:18.497Z,8.10
2018-11-06T22:22:48.157Z,8.00
2018-11-06T22:25:17.429Z,8.10
2018-11-06T22:27:46.626Z,8.10
2018-11-06T22:30:16.617Z,8.10
2018-11-06T22:32:46.371Z,8.20
2018-11-06T22:35:16.745Z,8.10
2018-11-06T22:37:45.993Z,8.10
2018-11-06T22:40:16.163Z,8.20
2018-11-06T22:42:45.062Z,8.20
2018-11-06T22:45:15.589Z,8.10
2018-11-06T22:47:44.798Z,8.20
2018-11-06T22:50:15.045Z,8.20
2018-11-06T22:52:44.816Z,8.30
2018-11-06T22:55:14.081Z,8.30
2018-11-06T22:57:43.880Z,8.30
2018-11-06T23:00:17.169Z,8.30
2018-11-06T23:02:46.322Z,8.30
2018-11-06T23:05:15.935Z,8.30
2018-11-06T23:07:50.752Z,8.30
2018-11-06T23:10:19.863Z,8.40
2018-11-06T23:12:48.726Z,8.40
2018-11-06T23:15:17.857Z,8.40
2018-11-06T23:17:46.931Z,8.40
2018-11-06T23:20:16.127Z,8.30
2018-11-06T23:22:45.416Z,8.20
2018-11-06T23:25:15.126Z,8.20
2018-11-06T23:27:44.265Z,8.20
2018-11-06T23:30:14.646Z,8.20
2018-11-06T23:32:43.809Z,8.20
2018-11-06T23:35:12.719Z,8.20
2018-11-06T23:37:41.649Z,8.10
2018-11-06T23:40:11.227Z,8.00
2018-11-06T23:42:40.834Z,7.90
2018-11-06T23:45:10.485Z,7.80
2018-11-06T23:47:39.781Z,7.80
2018-11-06T23:50:09.593Z,7.70
2018-11-06T23:52:38.645Z,7.60
2018-11-06T23:55:07.782Z,7.60
2018-11-06T23:57:37.267Z,7.50
